AAL3198 KOKC-KDFW
Flight info
| Callsign | AAL3198 |
|---|---|
| Flight time | 0h 30m |
| Altitude | 19000 |
| Route | MUDDE3 MUDDE RBUKL VKTRY2 |
| Aircraft | CRJ9/M-SDFGIRWY/S |
Departure
| Time | 2026-05-09 00:59 |
|---|---|
| Airport | OKC Will Rogers World Airport (KOKC) |
Arrival
| Time | 2026-05-09 01:30 |
|---|---|
| Airport | Dallas Fort Worth International Airport (KDFW) |
| Time | Latitude | Longitude | Altitude | Speed | Heading |
|---|---|---|---|---|---|
| 2026-05-09 00:39 | 35.39477 | -97.59752 | 1295 ft | 0 kts | 0° |
| 2026-05-09 00:49 | 35.39475 | -97.59752 | 1295 ft | 1 kts | 0° |
| 2026-05-09 00:49 | 35.39457 | -97.59753 | 1295 ft | 3 kts | 9° |
| 2026-05-09 00:49 | 35.39438 | -97.59760 | 1295 ft | 3 kts | 26° |
| 2026-05-09 00:49 | 35.39424 | -97.59773 | 1295 ft | 3 kts | 60° |
| 2026-05-09 00:50 | 35.39422 | -97.59788 | 1295 ft | 2 kts | 109° |
| 2026-05-09 00:50 | 35.39423 | -97.59791 | 1295 ft | 1 kts | 112° |
| 2026-05-09 00:53 | 35.39422 | -97.59787 | 1295 ft | 2 kts | 112° |
| 2026-05-09 00:53 | 35.39409 | -97.59750 | 1295 ft | 7 kts | 114° |
| 2026-05-09 00:53 | 35.39391 | -97.59682 | 1295 ft | 9 kts | 101° |
| 2026-05-09 00:54 | 35.39382 | -97.59609 | 1295 ft | 8 kts | 94° |
| 2026-05-09 00:54 | 35.39381 | -97.59542 | 1295 ft | 5 kts | 90° |
| 2026-05-09 00:54 | 35.39381 | -97.59540 | 1295 ft | 0 kts | 90° |
| 2026-05-09 00:54 | 35.39381 | -97.59537 | 1295 ft | 4 kts | 88° |
| 2026-05-09 00:55 | 35.39382 | -97.59444 | 1295 ft | 13 kts | 90° |
| 2026-05-09 00:55 | 35.39381 | -97.59341 | 1294 ft | 11 kts | 89° |
| 2026-05-09 00:55 | 35.39387 | -97.59259 | 1293 ft | 4 kts | 61° |
| 2026-05-09 00:55 | 35.39405 | -97.59234 | 1293 ft | 6 kts | 35° |
| 2026-05-09 00:56 | 35.39464 | -97.59199 | 1294 ft | 13 kts | 39° |
| 2026-05-09 00:56 | 35.39485 | -97.59092 | 1292 ft | 12 kts | 61° |
| 2026-05-09 00:56 | 35.39576 | -97.59063 | 1290 ft | 19 kts | 0° |
| 2026-05-09 00:56 | 35.39742 | -97.59061 | 1293 ft | 28 kts | 359° |
| 2026-05-09 00:57 | 35.39939 | -97.59064 | 1290 ft | 29 kts | 1° |
| 2026-05-09 00:57 | 35.40133 | -97.59062 | 1291 ft | 23 kts | 0° |
| 2026-05-09 00:57 | 35.40279 | -97.59063 | 1296 ft | 21 kts | 359° |
| 2026-05-09 00:57 | 35.40380 | -97.59037 | 1288 ft | 10 kts | 42° |
| 2026-05-09 00:58 | 35.40398 | -97.58979 | 1290 ft | 6 kts | 90° |
| 2026-05-09 00:58 | 35.40388 | -97.58933 | 1291 ft | 8 kts | 120° |
| 2026-05-09 00:58 | 35.40342 | -97.58896 | 1293 ft | 7 kts | 182° |
| 2026-05-09 00:58 | 35.40222 | -97.58897 | 1292 ft | 45 kts | 180° |
| 2026-05-09 00:59 | 35.39647 | -97.58898 | 1289 ft | 118 kts | 180° |
| 2026-05-09 00:59 | 35.38618 | -97.58895 | 1292 ft | 175 kts | 179° |
| 2026-05-09 00:59 | 35.37307 | -97.58896 | 1720 ft | 194 kts | 181° |
| 2026-05-09 00:59 | 35.35973 | -97.58952 | 2559 ft | 188 kts | 184° |
| 2026-05-09 01:00 | 35.34696 | -97.59012 | 3338 ft | 181 kts | 182° |
| 2026-05-09 01:00 | 35.33413 | -97.58965 | 3921 ft | 189 kts | 180° |
| 2026-05-09 01:00 | 35.32058 | -97.58878 | 4336 ft | 207 kts | 179° |
| 2026-05-09 01:00 | 35.30536 | -97.58748 | 4720 ft | 230 kts | 178° |
| 2026-05-09 01:01 | 35.28873 | -97.58586 | 5231 ft | 249 kts | 178° |
| 2026-05-09 01:01 | 35.27090 | -97.58418 | 5818 ft | 265 kts | 178° |
| 2026-05-09 01:01 | 35.25231 | -97.58242 | 6468 ft | 276 kts | 179° |
| 2026-05-09 01:01 | 35.23301 | -97.58059 | 7263 ft | 280 kts | 179° |
| 2026-05-09 01:02 | 35.21338 | -97.57870 | 8028 ft | 285 kts | 179° |
| 2026-05-09 01:02 | 35.19319 | -97.57681 | 8835 ft | 289 kts | 180° |
| 2026-05-09 01:02 | 35.17321 | -97.57495 | 9615 ft | 294 kts | 180° |
| 2026-05-09 01:02 | 35.15265 | -97.57306 | 10367 ft | 298 kts | 181° |
| 2026-05-09 01:03 | 35.13188 | -97.57112 | 11134 ft | 300 kts | 181° |
| 2026-05-09 01:03 | 35.11093 | -97.56913 | 11870 ft | 303 kts | 181° |
| 2026-05-09 01:03 | 35.08979 | -97.56716 | 12604 ft | 306 kts | 182° |
| 2026-05-09 01:03 | 35.06845 | -97.56515 | 13352 ft | 309 kts | 182° |
| 2026-05-09 01:04 | 35.04691 | -97.56310 | 14043 ft | 312 kts | 182° |
| 2026-05-09 01:04 | 35.02519 | -97.56103 | 14713 ft | 314 kts | 181° |
| 2026-05-09 01:04 | 35.00331 | -97.55886 | 15377 ft | 317 kts | 180° |
| 2026-05-09 01:04 | 34.98121 | -97.55598 | 16050 ft | 320 kts | 179° |
| 2026-05-09 01:05 | 34.95897 | -97.55269 | 16705 ft | 323 kts | 179° |
| 2026-05-09 01:05 | 34.93659 | -97.54937 | 17357 ft | 325 kts | 180° |
| 2026-05-09 01:05 | 34.89152 | -97.54939 | 18467 ft | 328 kts | 189° |
| 2026-05-09 01:06 | 34.86831 | -97.55146 | 18692 ft | 342 kts | 189° |
| 2026-05-09 01:06 | 34.84392 | -97.55354 | 18802 ft | 361 kts | 188° |
| 2026-05-09 01:06 | 34.81821 | -97.55511 | 18860 ft | 380 kts | 187° |
| 2026-05-09 01:06 | 34.79106 | -97.55635 | 18894 ft | 399 kts | 187° |
| 2026-05-09 01:07 | 34.76266 | -97.55771 | 18909 ft | 417 kts | 186° |
| 2026-05-09 01:07 | 34.73355 | -97.55912 | 18909 ft | 420 kts | 186° |
| 2026-05-09 01:07 | 34.70427 | -97.56058 | 18900 ft | 422 kts | 186° |
| 2026-05-09 01:07 | 34.67489 | -97.56204 | 18893 ft | 424 kts | 186° |
| 2026-05-09 01:08 | 34.64534 | -97.56348 | 18881 ft | 426 kts | 186° |
| 2026-05-09 01:08 | 34.61560 | -97.56495 | 18873 ft | 428 kts | 186° |
| 2026-05-09 01:08 | 34.58577 | -97.56639 | 18875 ft | 430 kts | 186° |
| 2026-05-09 01:08 | 34.55582 | -97.56789 | 18871 ft | 432 kts | 186° |
| 2026-05-09 01:09 | 34.52578 | -97.56937 | 18861 ft | 433 kts | 186° |
| 2026-05-09 01:09 | 34.49559 | -97.57083 | 18858 ft | 434 kts | 186° |
| 2026-05-09 01:09 | 34.46535 | -97.57231 | 18854 ft | 435 kts | 186° |
| 2026-05-09 01:09 | 34.43506 | -97.57381 | 18854 ft | 437 kts | 186° |
| 2026-05-09 01:10 | 34.40464 | -97.57532 | 18850 ft | 438 kts | 186° |
| 2026-05-09 01:10 | 34.37421 | -97.57680 | 18846 ft | 438 kts | 186° |
| 2026-05-09 01:10 | 34.34370 | -97.57827 | 18846 ft | 439 kts | 186° |
| 2026-05-09 01:10 | 34.31328 | -97.57975 | 18848 ft | 433 kts | 186° |
| 2026-05-09 01:11 | 34.28353 | -97.58116 | 18840 ft | 422 kts | 186° |
| 2026-05-09 01:11 | 34.25452 | -97.58255 | 18828 ft | 413 kts | 186° |
| 2026-05-09 01:11 | 34.22612 | -97.58395 | 18823 ft | 404 kts | 187° |
| 2026-05-09 01:11 | 34.19828 | -97.58533 | 18813 ft | 397 kts | 187° |
| 2026-05-09 01:12 | 34.17129 | -97.58666 | 18811 ft | 390 kts | 187° |
| 2026-05-09 01:12 | 34.14436 | -97.58797 | 18809 ft | 384 kts | 187° |
| 2026-05-09 01:12 | 34.11789 | -97.58925 | 18810 ft | 379 kts | 187° |
| 2026-05-09 01:12 | 34.09173 | -97.59052 | 18817 ft | 374 kts | 187° |
| 2026-05-09 01:13 | 34.06589 | -97.59180 | 18814 ft | 369 kts | 187° |
| 2026-05-09 01:13 | 34.04043 | -97.59306 | 18813 ft | 364 kts | 187° |
| 2026-05-09 01:13 | 34.01524 | -97.59429 | 18817 ft | 360 kts | 187° |
| 2026-05-09 01:13 | 33.99037 | -97.59549 | 18874 ft | 355 kts | 187° |
| 2026-05-09 01:14 | 33.96577 | -97.59667 | 18849 ft | 353 kts | 187° |
| 2026-05-09 01:14 | 33.94133 | -97.59788 | 18832 ft | 350 kts | 187° |
| 2026-05-09 01:14 | 33.91704 | -97.59912 | 18756 ft | 345 kts | 187° |
| 2026-05-09 01:14 | 33.89343 | -97.60035 | 18610 ft | 335 kts | 188° |
| 2026-05-09 01:15 | 33.86992 | -97.60163 | 18461 ft | 344 kts | 188° |
| 2026-05-09 01:15 | 33.84550 | -97.60310 | 18379 ft | 358 kts | 188° |
| 2026-05-09 01:15 | 33.82026 | -97.60474 | 18352 ft | 367 kts | 188° |
| 2026-05-09 01:15 | 33.79457 | -97.60654 | 18356 ft | 373 kts | 188° |
| 2026-05-09 01:16 | 33.76808 | -97.60850 | 17981 ft | 390 kts | 188° |
| 2026-05-09 01:16 | 33.74075 | -97.61072 | 17534 ft | 399 kts | 188° |
| 2026-05-09 01:16 | 33.72227 | -97.61237 | 17240 ft | 406 kts | 188° |
| 2026-05-09 01:17 | 33.66469 | -97.61809 | 16325 ft | 424 kts | 189° |
| 2026-05-09 01:17 | 33.63507 | -97.62134 | 15858 ft | 431 kts | 189° |
| 2026-05-09 01:17 | 33.60603 | -97.62456 | 15373 ft | 405 kts | 189° |
| 2026-05-09 01:17 | 33.57847 | -97.62747 | 14931 ft | 389 kts | 189° |
| 2026-05-09 01:18 | 33.55203 | -97.63026 | 14484 ft | 375 kts | 189° |
| 2026-05-09 01:18 | 33.52648 | -97.63295 | 14073 ft | 363 kts | 189° |
| 2026-05-09 01:18 | 33.50165 | -97.63549 | 13678 ft | 353 kts | 189° |
| 2026-05-09 01:18 | 33.47749 | -97.63795 | 13239 ft | 344 kts | 189° |
| 2026-05-09 01:19 | 33.45390 | -97.64038 | 12819 ft | 336 kts | 189° |
| 2026-05-09 01:19 | 33.43083 | -97.64274 | 12419 ft | 329 kts | 189° |
| 2026-05-09 01:19 | 33.40821 | -97.64509 | 12024 ft | 323 kts | 189° |
| 2026-05-09 01:19 | 33.38599 | -97.64743 | 11652 ft | 318 kts | 189° |
| 2026-05-09 01:20 | 33.36416 | -97.64974 | 11303 ft | 312 kts | 189° |
| 2026-05-09 01:20 | 33.34245 | -97.65192 | 10977 ft | 315 kts | 186° |
| 2026-05-09 01:20 | 33.32073 | -97.64675 | 10640 ft | 327 kts | 157° |
| 2026-05-09 01:20 | 33.30259 | -97.63015 | 10347 ft | 335 kts | 132° |
| 2026-05-09 01:21 | 33.29061 | -97.60603 | 10050 ft | 343 kts | 111° |
| 2026-05-09 01:21 | 33.28618 | -97.57808 | 9579 ft | 345 kts | 92° |
| 2026-05-09 01:21 | 33.28547 | -97.54955 | 9134 ft | 343 kts | 91° |
| 2026-05-09 01:21 | 33.28418 | -97.52163 | 9053 ft | 328 kts | 97° |
| 2026-05-09 01:22 | 33.27938 | -97.49566 | 9029 ft | 312 kts | 108° |
| 2026-05-09 01:22 | 33.27192 | -97.47215 | 9023 ft | 293 kts | 115° |
| 2026-05-09 01:22 | 33.26347 | -97.45027 | 8654 ft | 289 kts | 118° |
| 2026-05-09 01:22 | 33.25102 | -97.43215 | 8262 ft | 280 kts | 144° |
| 2026-05-09 01:23 | 33.23545 | -97.41861 | 7927 ft | 275 kts | 147° |
| 2026-05-09 01:23 | 33.22012 | -97.40524 | 7579 ft | 271 kts | 145° |
| 2026-05-09 01:23 | 33.20522 | -97.39079 | 7245 ft | 281 kts | 141° |
| 2026-05-09 01:23 | 33.19071 | -97.37531 | 6949 ft | 277 kts | 139° |
| 2026-05-09 01:24 | 33.17646 | -97.35981 | 6615 ft | 283 kts | 139° |
| 2026-05-09 01:24 | 33.16166 | -97.34384 | 6265 ft | 287 kts | 139° |
| 2026-05-09 01:24 | 33.14686 | -97.32804 | 5892 ft | 285 kts | 140° |
| 2026-05-09 01:24 | 33.13207 | -97.31239 | 5513 ft | 283 kts | 140° |
| 2026-05-09 01:25 | 33.11739 | -97.29707 | 5119 ft | 276 kts | 141° |
| 2026-05-09 01:25 | 33.10357 | -97.28270 | 5074 ft | 252 kts | 141° |
| 2026-05-09 01:25 | 33.09053 | -97.26930 | 4641 ft | 251 kts | 141° |
| 2026-05-09 01:25 | 33.07770 | -97.25611 | 4801 ft | 233 kts | 141° |
| 2026-05-09 01:26 | 33.06551 | -97.24345 | 5258 ft | 232 kts | 142° |
| 2026-05-09 01:26 | 33.05352 | -97.23107 | 5715 ft | 231 kts | 141° |
| 2026-05-09 01:26 | 33.04105 | -97.21814 | 5598 ft | 244 kts | 141° |
| 2026-05-09 01:26 | 33.02817 | -97.20432 | 4737 ft | 257 kts | 139° |
| 2026-05-09 01:27 | 33.01476 | -97.19021 | 4064 ft | 255 kts | 142° |
| 2026-05-09 01:27 | 33.00137 | -97.17695 | 3597 ft | 245 kts | 142° |
| 2026-05-09 01:27 | 32.98869 | -97.16393 | 3165 ft | 237 kts | 141° |
| 2026-05-09 01:27 | 32.97645 | -97.15109 | 2554 ft | 229 kts | 143° |
| 2026-05-09 01:28 | 32.96429 | -97.13926 | 1822 ft | 224 kts | 143° |
| 2026-05-09 01:28 | 32.95235 | -97.12701 | 1470 ft | 218 kts | 140° |
| 2026-05-09 01:28 | 32.94144 | -97.11558 | 1198 ft | 204 kts | 140° |
| 2026-05-09 01:28 | 32.93047 | -97.10452 | 1104 ft | 211 kts | 142° |
| 2026-05-09 01:29 | 32.91963 | -97.09362 | 956 ft | 189 kts | 140° |
| 2026-05-09 01:29 | 32.91076 | -97.08434 | 683 ft | 158 kts | 141° |
| 2026-05-09 01:29 | 32.90353 | -97.07700 | 617 ft | 110 kts | 141° |
| 2026-05-09 01:29 | 32.89899 | -97.07236 | 619 ft | 64 kts | 138° |
| 2026-05-09 01:30 | 32.89654 | -97.06942 | 620 ft | 45 kts | 124° |
| 2026-05-09 01:30 | 32.89535 | -97.06633 | 617 ft | 32 kts | 110° |
| 2026-05-09 01:30 | 32.89519 | -97.06571 | 621 ft | 9 kts | 99° |